sensor_id;sensor_type;location;lat;lon;timestamp;P1;durP1;ratioP1;P2;durP2;ratioP2
10458;SDS011;5277;48.722;8.736;2024-03-23T00:54:36;9.57;;;3.50;;
10458;SDS011;5277;48.722;8.736;2024-03-23T00:57:01;10.07;;;4.15;;
10458;SDS011;5277;48.722;8.736;2024-03-23T00:59:27;6.47;;;3.70;;
10458;SDS011;5277;48.722;8.736;2024-03-23T01:01:53;8.55;;;4.18;;
10458;SDS011;5277;48.722;8.736;2024-03-23T01:04:20;7.50;;;4.05;;
10458;SDS011;5277;48.722;8.736;2024-03-23T01:06:45;6.57;;;4.20;;
10458;SDS011;5277;48.722;8.736;2024-03-23T01:09:11;6.20;;;5.30;;
10458;SDS011;5277;48.722;8.736;2024-03-23T01:11:36;5.60;;;3.90;;
10458;SDS011;5277;48.722;8.736;2024-03-23T01:14:02;7.88;;;4.13;;
10458;SDS011;5277;48.722;8.736;2024-03-23T01:16:28;7.97;;;4.22;;
10458;SDS011;5277;48.722;8.736;2024-03-23T01:18:54;6.22;;;3.78;;
10458;SDS011;5277;48.722;8.736;2024-03-23T01:21:19;5.53;;;3.50;;
10458;SDS011;5277;48.722;8.736;2024-03-23T01:23:45;8.18;;;4.07;;
10458;SDS011;5277;48.722;8.736;2024-03-23T01:26:11;6.68;;;3.97;;
10458;SDS011;5277;48.722;8.736;2024-03-23T01:28:36;6.33;;;3.70;;
10458;SDS011;5277;48.722;8.736;2024-03-23T01:31:02;5.45;;;4.15;;
10458;SDS011;5277;48.722;8.736;2024-03-23T01:33:28;4.57;;;3.20;;
10458;SDS011;5277;48.722;8.736;2024-03-23T01:35:53;5.50;;;3.67;;
10458;SDS011;5277;48.722;8.736;2024-03-23T01:38:19;8.10;;;4.07;;
10458;SDS011;5277;48.722;8.736;2024-03-23T01:40:44;12.45;;;3.75;;
10458;SDS011;5277;48.722;8.736;2024-03-23T01:43:11;6.75;;;3.72;;
10458;SDS011;5277;48.722;8.736;2024-03-23T01:45:37;7.78;;;4.10;;
10458;SDS011;5277;48.722;8.736;2024-03-23T01:48:03;8.88;;;3.47;;
10458;SDS011;5277;48.722;8.736;2024-03-23T01:50:29;10.18;;;3.90;;
10458;SDS011;5277;48.722;8.736;2024-03-23T01:52:58;7.38;;;4.05;;
10458;SDS011;5277;48.722;8.736;2024-03-23T01:55:24;5.72;;;3.80;;
10458;SDS011;5277;48.722;8.736;2024-03-23T01:57:50;10.25;;;3.90;;
10458;SDS011;5277;48.722;8.736;2024-03-23T02:00:16;7.80;;;3.55;;
10458;SDS011;5277;48.722;8.736;2024-03-23T02:02:43;5.28;;;3.65;;
10458;SDS011;5277;48.722;8.736;2024-03-23T02:05:12;6.55;;;3.55;;
10458;SDS011;5277;48.722;8.736;2024-03-23T02:07:41;6.55;;;3.67;;
10458;SDS011;5277;48.722;8.736;2024-03-23T02:10:08;7.60;;;3.78;;
10458;SDS011;5277;48.722;8.736;2024-03-23T02:12:38;13.68;;;4.07;;
10458;SDS011;5277;48.722;8.736;2024-03-23T02:15:04;6.97;;;3.33;;
10458;SDS011;5277;48.722;8.736;2024-03-23T02:17:31;6.65;;;3.70;;
10458;SDS011;5277;48.722;8.736;2024-03-23T02:19:59;8.82;;;3.78;;
10458;SDS011;5277;48.722;8.736;2024-03-23T02:22:25;7.43;;;4.00;;
10458;SDS011;5277;48.722;8.736;2024-03-23T02:24:50;7.05;;;3.28;;
10458;SDS011;5277;48.722;8.736;2024-03-23T02:27:16;4.82;;;3.40;;
10458;SDS011;5277;48.722;8.736;2024-03-23T02:29:41;10.90;;;3.60;;
10458;SDS011;5277;48.722;8.736;2024-03-23T02:32:07;5.63;;;3.85;;
10458;SDS011;5277;48.722;8.736;2024-03-23T02:34:34;4.22;;;3.22;;
10458;SDS011;5277;48.722;8.736;2024-03-23T02:37:00;7.85;;;3.72;;
10458;SDS011;5277;48.722;8.736;2024-03-23T02:39:26;4.20;;;3.17;;
10458;SDS011;5277;48.722;8.736;2024-03-23T02:41:51;8.57;;;3.85;;
10458;SDS011;5277;48.722;8.736;2024-03-23T02:44:17;8.25;;;3.60;;
10458;SDS011;5277;48.722;8.736;2024-03-23T02:46:42;7.88;;;3.60;;
10458;SDS011;5277;48.722;8.736;2024-03-23T02:49:08;7.10;;;3.65;;
10458;SDS011;5277;48.722;8.736;2024-03-23T02:51:34;9.07;;;3.72;;
10458;SDS011;5277;48.722;8.736;2024-03-23T02:53:59;7.25;;;3.75;;
10458;SDS011;5277;48.722;8.736;2024-03-23T02:56:25;13.75;;;3.80;;
10458;SDS011;5277;48.722;8.736;2024-03-23T02:58:51;4.13;;;3.20;;
10458;SDS011;5277;48.722;8.736;2024-03-23T03:01:16;5.60;;;3.78;;
10458;SDS011;5277;48.722;8.736;2024-03-23T03:03:42;5.72;;;3.95;;
10458;SDS011;5277;48.722;8.736;2024-03-23T03:06:07;7.20;;;3.63;;
10458;SDS011;5277;48.722;8.736;2024-03-23T03:08:33;4.63;;;3.40;;
10458;SDS011;5277;48.722;8.736;2024-03-23T03:10:59;5.27;;;3.67;;
10458;SDS011;5277;48.722;8.736;2024-03-23T03:13:25;6.67;;;3.67;;
10458;SDS011;5277;48.722;8.736;2024-03-23T03:15:50;11.30;;;3.60;;
10458;SDS011;5277;48.722;8.736;2024-03-23T03:18:16;10.57;;;4.00;;
10458;SDS011;5277;48.722;8.736;2024-03-23T03:20:41;7.13;;;3.50;;
10458;SDS011;5277;48.722;8.736;2024-03-23T03:23:07;5.17;;;3.50;;
10458;SDS011;5277;48.722;8.736;2024-03-23T03:25:33;10.03;;;3.90;;
10458;SDS011;5277;48.722;8.736;2024-03-23T03:27:59;9.10;;;4.00;;
10458;SDS011;5277;48.722;8.736;2024-03-23T03:30:25;7.53;;;3.60;;
10458;SDS011;5277;48.722;8.736;2024-03-23T03:32:51;10.50;;;3.53;;
10458;SDS011;5277;48.722;8.736;2024-03-23T03:35:18;11.83;;;4.20;;
10458;SDS011;5277;48.722;8.736;2024-03-23T03:37:43;5.90;;;3.53;;
10458;SDS011;5277;48.722;8.736;2024-03-23T03:40:09;6.67;;;3.93;;
10458;SDS011;5277;48.722;8.736;2024-03-23T03:42:36;9.17;;;4.03;;
10458;SDS011;5277;48.722;8.736;2024-03-23T03:45:01;5.47;;;3.50;;
10458;SDS011;5277;48.722;8.736;2024-03-23T03:47:29;9.23;;;3.60;;
10458;SDS011;5277;48.722;8.736;2024-03-23T03:49:55;12.77;;;5.27;;
10458;SDS011;5277;48.722;8.736;2024-03-23T03:52:20;8.13;;;3.50;;
10458;SDS011;5277;48.722;8.736;2024-03-23T03:54:46;7.47;;;4.37;;
10458;SDS011;5277;48.722;8.736;2024-03-23T03:57:11;5.57;;;3.87;;
10458;SDS011;5277;48.722;8.736;2024-03-23T03:59:37;6.30;;;4.00;;
10458;SDS011;5277;48.722;8.736;2024-03-23T04:02:03;5.67;;;3.70;;
10458;SDS011;5277;48.722;8.736;2024-03-23T04:04:28;9.63;;;4.07;;
10458;SDS011;5277;48.722;8.736;2024-03-23T04:07:00;13.53;;;4.90;;
10458;SDS011;5277;48.722;8.736;2024-03-23T04:09:27;7.13;;;4.43;;
10458;SDS011;5277;48.722;8.736;2024-03-23T04:11:52;7.03;;;4.78;;
10458;SDS011;5277;48.722;8.736;2024-03-23T04:14:18;9.82;;;4.80;;
10458;SDS011;5277;48.722;8.736;2024-03-23T04:16:44;7.32;;;4.55;;
10458;SDS011;5277;48.722;8.736;2024-03-23T04:19:10;5.38;;;4.00;;
10458;SDS011;5277;48.722;8.736;2024-03-23T04:21:36;8.40;;;4.93;;
10458;SDS011;5277;48.722;8.736;2024-03-23T04:24:02;8.95;;;4.60;;
10458;SDS011;5277;48.722;8.736;2024-03-23T04:26:28;9.93;;;4.80;;
10458;SDS011;5277;48.722;8.736;2024-03-23T04:28:54;5.65;;;4.18;;
10458;SDS011;5277;48.722;8.736;2024-03-23T04:31:20;11.25;;;5.45;;
10458;SDS011;5277;48.722;8.736;2024-03-23T04:33:45;8.48;;;5.03;;
10458;SDS011;5277;48.722;8.736;2024-03-23T04:36:12;11.85;;;5.90;;
10458;SDS011;5277;48.722;8.736;2024-03-23T04:38:37;6.25;;;3.85;;
10458;SDS011;5277;48.722;8.736;2024-03-23T04:41:03;13.65;;;5.32;;
10458;SDS011;5277;48.722;8.736;2024-03-23T04:43:28;10.55;;;5.35;;
10458;SDS011;5277;48.722;8.736;2024-03-23T04:45:54;9.40;;;5.25;;
10458;SDS011;5277;48.722;8.736;2024-03-23T04:48:20;8.05;;;4.25;;
10458;SDS011;5277;48.722;8.736;2024-03-23T04:50:47;8.10;;;4.65;;
10458;SDS011;5277;48.722;8.736;2024-03-23T04:53:14;13.27;;;4.00;;
10458;SDS011;5277;48.722;8.736;2024-03-23T04:55:40;5.90;;;3.95;;
10458;SDS011;5277;48.722;8.736;2024-03-23T04:58:06;8.80;;;4.65;;
10458;SDS011;5277;48.722;8.736;2024-03-23T05:00:32;7.95;;;4.00;;
10458;SDS011;5277;48.722;8.736;2024-03-23T05:02:57;7.93;;;4.35;;
10458;SDS011;5277;48.722;8.736;2024-03-23T05:05:23;11.32;;;4.70;;
10458;SDS011;5277;48.722;8.736;2024-03-23T05:07:48;7.65;;;4.50;;
10458;SDS011;5277;48.722;8.736;2024-03-23T05:10:14;7.45;;;5.07;;
10458;SDS011;5277;48.722;8.736;2024-03-23T05:12:40;8.35;;;5.07;;
10458;SDS011;5277;48.722;8.736;2024-03-23T05:15:05;14.00;;;6.50;;
10458;SDS011;5277;48.722;8.736;2024-03-23T05:17:32;11.38;;;7.15;;
10458;SDS011;5277;48.722;8.736;2024-03-23T05:19:58;10.18;;;6.57;;
10458;SDS011;5277;48.722;8.736;2024-03-23T05:22:24;10.48;;;6.68;;
10458;SDS011;5277;48.722;8.736;2024-03-23T05:24:50;11.75;;;7.82;;
10458;SDS011;5277;48.722;8.736;2024-03-23T05:27:15;15.93;;;8.50;;
10458;SDS011;5277;48.722;8.736;2024-03-23T05:29:41;17.25;;;8.32;;
10458;SDS011;5277;48.722;8.736;2024-03-23T05:32:07;12.90;;;8.38;;
10458;SDS011;5277;48.722;8.736;2024-03-23T05:34:32;16.13;;;8.05;;
10458;SDS011;5277;48.722;8.736;2024-03-23T05:36:58;14.63;;;8.73;;
10458;SDS011;5277;48.722;8.736;2024-03-23T05:39:24;20.20;;;9.32;;
10458;SDS011;5277;48.722;8.736;2024-03-23T05:41:49;12.45;;;7.22;;
10458;SDS011;5277;48.722;8.736;2024-03-23T05:44:16;11.05;;;5.05;;
10458;SDS011;5277;48.722;8.736;2024-03-23T05:46:41;9.07;;;4.78;;
10458;SDS011;5277;48.722;8.736;2024-03-23T05:49:08;7.35;;;4.43;;
10458;SDS011;5277;48.722;8.736;2024-03-23T05:51:34;9.38;;;4.20;;
10458;SDS011;5277;48.722;8.736;2024-03-23T05:53:59;6.60;;;3.30;;
10458;SDS011;5277;48.722;8.736;2024-03-23T05:56:26;5.13;;;3.13;;
10458;SDS011;5277;48.722;8.736;2024-03-23T05:58:52;5.30;;;2.63;;
10458;SDS011;5277;48.722;8.736;2024-03-23T06:01:17;3.40;;;2.60;;
10458;SDS011;5277;48.722;8.736;2024-03-23T06:03:43;3.40;;;2.28;;
10458;SDS011;5277;48.722;8.736;2024-03-23T06:06:09;5.07;;;2.00;;
10458;SDS011;5277;48.722;8.736;2024-03-23T06:08:37;4.93;;;2.30;;
10458;SDS011;5277;48.722;8.736;2024-03-23T06:11:03;2.63;;;2.00;;
10458;SDS011;5277;48.722;8.736;2024-03-23T06:13:31;2.85;;;1.80;;
10458;SDS011;5277;48.722;8.736;2024-03-23T06:15:57;1.63;;;1.35;;
10458;SDS011;5277;48.722;8.736;2024-03-23T06:18:23;1.88;;;1.30;;
10458;SDS011;5277;48.722;8.736;2024-03-23T06:20:49;1.88;;;1.15;;
10458;SDS011;5277;48.722;8.736;2024-03-23T06:23:15;1.73;;;1.10;;
10458;SDS011;5277;48.722;8.736;2024-03-23T06:25:42;1.30;;;1.02;;
10458;SDS011;5277;48.722;8.736;2024-03-23T06:28:08;4.20;;;1.10;;
10458;SDS011;5277;48.722;8.736;2024-03-23T06:30:33;1.88;;;0.88;;
10458;SDS011;5277;48.722;8.736;2024-03-23T06:32:59;1.10;;;1.00;;
10458;SDS011;5277;48.722;8.736;2024-03-23T06:35:24;2.45;;;0.98;;
10458;SDS011;5277;48.722;8.736;2024-03-23T06:37:50;1.65;;;0.90;;
10458;SDS011;5277;48.722;8.736;2024-03-23T06:40:16;1.33;;;0.85;;
10458;SDS011;5277;48.722;8.736;2024-03-23T06:42:42;1.40;;;1.10;;
10458;SDS011;5277;48.722;8.736;2024-03-23T06:45:07;0.75;;;0.68;;
10458;SDS011;5277;48.722;8.736;2024-03-23T06:47:33;1.90;;;0.90;;
10458;SDS011;5277;48.722;8.736;2024-03-23T06:49:59;1.52;;;0.70;;
10458;SDS011;5277;48.722;8.736;2024-03-23T06:52:28;0.82;;;0.70;;
10458;SDS011;5277;48.722;8.736;2024-03-23T06:54:54;1.15;;;0.60;;
10458;SDS011;5277;48.722;8.736;2024-03-23T06:57:20;1.45;;;0.80;;
10458;SDS011;5277;48.722;8.736;2024-03-23T06:59:45;0.68;;;0.57;;
10458;SDS011;5277;48.722;8.736;2024-03-23T07:02:11;0.45;;;0.43;;
10458;SDS011;5277;48.722;8.736;2024-03-23T07:04:36;0.50;;;0.40;;
10458;SDS011;5277;48.722;8.736;2024-03-23T07:07:04;0.30;;;0.30;;
10458;SDS011;5277;48.722;8.736;2024-03-23T07:09:30;0.68;;;0.50;;
10458;SDS011;5277;48.722;8.736;2024-03-23T07:11:56;0.40;;;0.30;;
10458;SDS011;5277;48.722;8.736;2024-03-23T07:14:22;0.25;;;0.22;;
10458;SDS011;5277;48.722;8.736;2024-03-23T07:16:48;0.40;;;0.40;;
10458;SDS011;5277;48.722;8.736;2024-03-23T07:19:18;0.20;;;0.20;;
10458;SDS011;5277;48.722;8.736;2024-03-23T07:21:56;0.30;;;0.30;;
10458;SDS011;5277;48.722;8.736;2024-03-23T07:24:21;0.40;;;0.40;;
10458;SDS011;5277;48.722;8.736;2024-03-23T07:26:47;0.60;;;0.40;;
10458;SDS011;5277;48.722;8.736;2024-03-23T07:29:13;0.50;;;0.40;;
10458;SDS011;5277;48.722;8.736;2024-03-23T07:31:38;0.52;;;0.40;;
10458;SDS011;5277;48.722;8.736;2024-03-23T07:34:04;0.22;;;0.22;;
10458;SDS011;5277;48.722;8.736;2024-03-23T07:36:30;0.10;;;0.10;;
10458;SDS011;5277;48.722;8.736;2024-03-23T07:38:56;0.28;;;0.25;;
10458;SDS011;5277;48.722;8.736;2024-03-23T07:41:22;0.35;;;0.20;;
10458;SDS011;5277;48.722;8.736;2024-03-23T07:43:48;0.40;;;0.30;;
10458;SDS011;5277;48.722;8.736;2024-03-23T07:46:15;0.32;;;0.30;;
10458;SDS011;5277;48.722;8.736;2024-03-23T07:48:41;0.98;;;0.35;;
10458;SDS011;5277;48.722;8.736;2024-03-23T07:51:11;0.30;;;0.30;;
10458;SDS011;5277;48.722;8.736;2024-03-23T07:53:45;0.63;;;0.30;;
10458;SDS011;5277;48.722;8.736;2024-03-23T07:56:11;0.30;;;0.30;;
10458;SDS011;5277;48.722;8.736;2024-03-23T07:58:37;0.30;;;0.30;;
10458;SDS011;5277;48.722;8.736;2024-03-23T08:01:04;0.95;;;0.50;;
10458;SDS011;5277;48.722;8.736;2024-03-23T08:03:34;2.72;;;0.50;;
10458;SDS011;5277;48.722;8.736;2024-03-23T08:06:21;0.70;;;0.68;;
10458;SDS011;5277;48.722;8.736;2024-03-23T08:08:54;2.70;;;0.75;;
10458;SDS011;5277;48.722;8.736;2024-03-23T08:11:29;0.90;;;0.65;;
10458;SDS011;5277;48.722;8.736;2024-03-23T08:13:55;1.27;;;0.80;;
10458;SDS011;5277;48.722;8.736;2024-03-23T08:16:22;2.60;;;1.08;;
10458;SDS011;5277;48.722;8.736;2024-03-23T08:18:48;1.30;;;0.90;;
10458;SDS011;5277;48.722;8.736;2024-03-23T08:21:15;1.40;;;1.00;;
10458;SDS011;5277;48.722;8.736;2024-03-23T08:23:41;1.90;;;1.10;;
10458;SDS011;5277;48.722;8.736;2024-03-23T08:26:07;1.75;;;1.10;;
10458;SDS011;5277;48.722;8.736;2024-03-23T08:28:35;1.65;;;1.00;;
10458;SDS011;5277;48.722;8.736;2024-03-23T08:31:04;1.75;;;1.20;;
10458;SDS011;5277;48.722;8.736;2024-03-23T08:33:33;3.17;;;1.30;;
10458;SDS011;5277;48.722;8.736;2024-03-23T08:36:02;2.47;;;1.20;;
10458;SDS011;5277;48.722;8.736;2024-03-23T08:38:29;2.70;;;1.63;;
10458;SDS011;5277;48.722;8.736;2024-03-23T08:40:58;2.40;;;1.50;;
10458;SDS011;5277;48.722;8.736;2024-03-23T08:43:28;5.78;;;2.30;;
10458;SDS011;5277;48.722;8.736;2024-03-23T08:46:03;5.07;;;1.98;;
10458;SDS011;5277;48.722;8.736;2024-03-23T08:48:30;5.05;;;2.13;;
10458;SDS011;5277;48.722;8.736;2024-03-23T08:51:02;3.88;;;2.28;;
10458;SDS011;5277;48.722;8.736;2024-03-23T08:53:29;5.65;;;2.45;;
10458;SDS011;5277;48.722;8.736;2024-03-23T08:55:55;6.05;;;2.60;;
10458;SDS011;5277;48.722;8.736;2024-03-23T08:58:23;5.20;;;2.17;;
10458;SDS011;5277;48.722;8.736;2024-03-23T09:00:49;5.38;;;2.45;;
10458;SDS011;5277;48.722;8.736;2024-03-23T09:03:16;6.25;;;2.53;;
10458;SDS011;5277;48.722;8.736;2024-03-23T09:05:41;6.65;;;2.30;;
10458;SDS011;5277;48.722;8.736;2024-03-23T09:08:07;7.53;;;2.55;;
10458;SDS011;5277;48.722;8.736;2024-03-23T09:10:40;6.47;;;3.10;;
10458;SDS011;5277;48.722;8.736;2024-03-23T09:13:06;5.97;;;2.63;;
10458;SDS011;5277;48.722;8.736;2024-03-23T09:15:36;8.07;;;2.85;;
10458;SDS011;5277;48.722;8.736;2024-03-23T09:18:03;5.35;;;2.53;;
10458;SDS011;5277;48.722;8.736;2024-03-23T09:20:32;5.18;;;3.08;;
10458;SDS011;5277;48.722;8.736;2024-03-23T09:22:58;4.82;;;2.75;;
10458;SDS011;5277;48.722;8.736;2024-03-23T09:25:23;6.47;;;2.80;;
10458;SDS011;5277;48.722;8.736;2024-03-23T09:27:50;7.43;;;2.70;;
10458;SDS011;5277;48.722;8.736;2024-03-23T09:30:16;7.95;;;3.13;;
10458;SDS011;5277;48.722;8.736;2024-03-23T09:32:43;6.80;;;2.90;;
10458;SDS011;5277;48.722;8.736;2024-03-23T09:35:09;6.45;;;3.08;;
10458;SDS011;5277;48.722;8.736;2024-03-23T09:37:35;6.65;;;3.35;;
10458;SDS011;5277;48.722;8.736;2024-03-23T09:40:01;5.63;;;2.80;;
10458;SDS011;5277;48.722;8.736;2024-03-23T09:42:27;6.45;;;2.58;;
10458;SDS011;5277;48.722;8.736;2024-03-23T09:44:53;6.70;;;2.83;;
10458;SDS011;5277;48.722;8.736;2024-03-23T09:47:22;5.82;;;2.30;;
10458;SDS011;5277;48.722;8.736;2024-03-23T09:49:50;4.70;;;2.50;;
10458;SDS011;5277;48.722;8.736;2024-03-23T09:52:16;7.30;;;2.55;;
10458;SDS011;5277;48.722;8.736;2024-03-23T09:54:42;5.93;;;2.90;;
10458;SDS011;5277;48.722;8.736;2024-03-23T09:57:07;6.80;;;3.00;;
10458;SDS011;5277;48.722;8.736;2024-03-23T09:59:33;7.20;;;2.50;;
10458;SDS011;5277;48.722;8.736;2024-03-23T10:01:59;5.18;;;2.58;;
10458;SDS011;5277;48.722;8.736;2024-03-23T10:04:35;6.07;;;2.60;;
10458;SDS011;5277;48.722;8.736;2024-03-23T10:07:11;8.77;;;2.53;;
10458;SDS011;5277;48.722;8.736;2024-03-23T10:09:43;8.13;;;2.80;;
10458;SDS011;5277;48.722;8.736;2024-03-23T10:12:16;8.63;;;3.28;;
10458;SDS011;5277;48.722;8.736;2024-03-23T10:14:43;4.32;;;2.45;;
10458;SDS011;5277;48.722;8.736;2024-03-23T10:17:19;5.50;;;2.78;;
10458;SDS011;5277;48.722;8.736;2024-03-23T10:19:46;7.13;;;3.05;;
10458;SDS011;5277;48.722;8.736;2024-03-23T10:22:14;6.32;;;2.80;;
10458;SDS011;5277;48.722;8.736;2024-03-23T10:24:43;5.45;;;2.78;;
10458;SDS011;5277;48.722;8.736;2024-03-23T10:27:08;7.82;;;3.50;;
10458;SDS011;5277;48.722;8.736;2024-03-23T10:29:34;7.30;;;2.83;;
10458;SDS011;5277;48.722;8.736;2024-03-23T10:32:13;2.97;;;1.77;;
10458;SDS011;5277;48.722;8.736;2024-03-23T10:34:40;5.82;;;1.83;;
10458;SDS011;5277;48.722;8.736;2024-03-23T10:37:06;3.92;;;1.92;;
10458;SDS011;5277;48.722;8.736;2024-03-23T10:39:33;2.28;;;1.50;;
10458;SDS011;5277;48.722;8.736;2024-03-23T10:42:03;2.58;;;1.60;;
10458;SDS011;5277;48.722;8.736;2024-03-23T10:44:30;3.17;;;1.50;;
10458;SDS011;5277;48.722;8.736;2024-03-23T10:47:00;1.65;;;1.25;;
10458;SDS011;5277;48.722;8.736;2024-03-23T10:49:27;2.75;;;1.45;;
10458;SDS011;5277;48.722;8.736;2024-03-23T10:51:57;3.28;;;1.25;;
10458;SDS011;5277;48.722;8.736;2024-03-23T10:54:25;2.78;;;1.30;;
10458;SDS011;5277;48.722;8.736;2024-03-23T10:57:13;1.63;;;1.17;;
10458;SDS011;5277;48.722;8.736;2024-03-23T10:59:41;4.65;;;1.25;;
10458;SDS011;5277;48.722;8.736;2024-03-23T11:02:09;2.63;;;1.00;;
10458;SDS011;5277;48.722;8.736;2024-03-23T11:04:47;2.17;;;1.10;;
10458;SDS011;5277;48.722;8.736;2024-03-23T11:07:32;2.15;;;1.25;;
10458;SDS011;5277;48.722;8.736;2024-03-23T11:10:01;3.53;;;1.23;;
10458;SDS011;5277;48.722;8.736;2024-03-23T11:12:30;2.63;;;1.25;;
10458;SDS011;5277;48.722;8.736;2024-03-23T11:15:01;3.47;;;1.00;;
10458;SDS011;5277;48.722;8.736;2024-03-23T11:17:29;2.97;;;1.30;;
10458;SDS011;5277;48.722;8.736;2024-03-23T11:25:21;3.78;;;1.30;;
10458;SDS011;5277;48.722;8.736;2024-03-23T11:27:50;4.85;;;1.45;;
10458;SDS011;5277;48.722;8.736;2024-03-23T11:30:21;2.83;;;1.10;;
10458;SDS011;5277;48.722;8.736;2024-03-23T11:32:55;3.17;;;1.30;;
10458;SDS011;5277;48.722;8.736;2024-03-23T11:35:28;5.45;;;1.58;;
10458;SDS011;5277;48.722;8.736;2024-03-23T11:38:05;5.28;;;1.23;;
10458;SDS011;5277;48.722;8.736;2024-03-23T11:40:33;3.60;;;1.42;;
10458;SDS011;5277;48.722;8.736;2024-03-23T11:43:00;3.97;;;1.73;;
10458;SDS011;5277;48.722;8.736;2024-03-23T11:45:33;4.07;;;1.42;;
10458;SDS011;5277;48.722;8.736;2024-03-23T11:48:06;5.38;;;1.50;;
10458;SDS011;5277;48.722;8.736;2024-03-23T11:50:33;3.15;;;1.30;;
10458;SDS011;5277;48.722;8.736;2024-03-23T11:53:09;5.38;;;1.70;;
10458;SDS011;5277;48.722;8.736;2024-03-23T11:58:13;5.70;;;1.60;;
10458;SDS011;5277;48.722;8.736;2024-03-23T12:00:42;6.22;;;2.50;;
10458;SDS011;5277;48.722;8.736;2024-03-23T12:03:15;3.95;;;1.77;;
10458;SDS011;5277;48.722;8.736;2024-03-23T12:05:47;4.80;;;2.20;;
10458;SDS011;5277;48.722;8.736;2024-03-23T12:08:25;7.05;;;2.35;;
10458;SDS011;5277;48.722;8.736;2024-03-23T12:11:04;6.97;;;2.33;;
10458;SDS011;5277;48.722;8.736;2024-03-23T12:13:32;6.05;;;1.77;;
10458;SDS011;5277;48.722;8.736;2024-03-23T12:16:11;4.18;;;1.80;;
10458;SDS011;5277;48.722;8.736;2024-03-23T12:18:44;5.80;;;2.10;;
10458;SDS011;5277;48.722;8.736;2024-03-23T12:21:11;5.88;;;2.05;;
10458;SDS011;5277;48.722;8.736;2024-03-23T12:23:40;4.13;;;1.98;;
10458;SDS011;5277;48.722;8.736;2024-03-23T12:26:07;7.80;;;2.28;;
10458;SDS011;5277;48.722;8.736;2024-03-23T12:28:35;6.78;;;1.90;;
10458;SDS011;5277;48.722;8.736;2024-03-23T12:31:02;4.88;;;2.13;;
10458;SDS011;5277;48.722;8.736;2024-03-23T12:33:28;7.50;;;2.83;;
10458;SDS011;5277;48.722;8.736;2024-03-23T12:35:54;7.20;;;2.33;;
10458;SDS011;5277;48.722;8.736;2024-03-23T12:38:19;6.15;;;2.30;;
10458;SDS011;5277;48.722;8.736;2024-03-23T12:40:48;6.47;;;1.90;;
10458;SDS011;5277;48.722;8.736;2024-03-23T12:43:15;6.80;;;2.45;;
10458;SDS011;5277;48.722;8.736;2024-03-23T12:45:41;8.75;;;2.67;;
10458;SDS011;5277;48.722;8.736;2024-03-23T12:48:14;8.00;;;2.50;;
10458;SDS011;5277;48.722;8.736;2024-03-23T12:50:39;5.68;;;2.30;;
10458;SDS011;5277;48.722;8.736;2024-03-23T12:53:05;5.43;;;1.85;;
10458;SDS011;5277;48.722;8.736;2024-03-23T12:55:31;6.28;;;1.85;;
10458;SDS011;5277;48.722;8.736;2024-03-23T12:57:56;4.95;;;1.80;;
10458;SDS011;5277;48.722;8.736;2024-03-23T13:00:22;7.32;;;1.70;;
10458;SDS011;5277;48.722;8.736;2024-03-23T13:02:51;2.83;;;1.60;;
10458;SDS011;5277;48.722;8.736;2024-03-23T13:05:16;8.25;;;1.95;;
10458;SDS011;5277;48.722;8.736;2024-03-23T13:07:42;5.18;;;1.77;;
10458;SDS011;5277;48.722;8.736;2024-03-23T13:10:08;4.75;;;1.80;;
10458;SDS011;5277;48.722;8.736;2024-03-23T13:12:34;4.90;;;1.83;;
10458;SDS011;5277;48.722;8.736;2024-03-23T13:14:59;3.28;;;1.40;;
10458;SDS011;5277;48.722;8.736;2024-03-23T13:17:26;4.60;;;1.40;;
10458;SDS011;5277;48.722;8.736;2024-03-23T13:19:52;3.45;;;1.40;;
10458;SDS011;5277;48.722;8.736;2024-03-23T13:22:19;5.45;;;1.80;;
10458;SDS011;5277;48.722;8.736;2024-03-23T13:24:44;4.20;;;1.45;;
10458;SDS011;5277;48.722;8.736;2024-03-23T13:27:10;3.78;;;1.30;;
10458;SDS011;5277;48.722;8.736;2024-03-23T13:29:36;4.45;;;1.67;;
10458;SDS011;5277;48.722;8.736;2024-03-23T13:32:02;4.70;;;1.70;;
10458;SDS011;5277;48.722;8.736;2024-03-23T13:34:28;3.05;;;1.27;;
10458;SDS011;5277;48.722;8.736;2024-03-23T13:36:58;2.67;;;1.52;;
10458;SDS011;5277;48.722;8.736;2024-03-23T13:39:26;2.70;;;1.15;;
10458;SDS011;5277;48.722;8.736;2024-03-23T13:41:52;4.63;;;1.58;;
10458;SDS011;5277;48.722;8.736;2024-03-23T13:44:19;3.03;;;1.20;;
10458;SDS011;5277;48.722;8.736;2024-03-23T13:46:47;1.88;;;1.17;;
10458;SDS011;5277;48.722;8.736;2024-03-23T13:49:28;3.40;;;0.90;;
10458;SDS011;5277;48.722;8.736;2024-03-23T13:51:56;2.10;;;0.93;;
10458;SDS011;5277;48.722;8.736;2024-03-23T13:54:23;2.38;;;1.00;;
10458;SDS011;5277;48.722;8.736;2024-03-23T13:56:52;8.27;;;1.13;;
10458;SDS011;5277;48.722;8.736;2024-03-23T13:59:21;2.03;;;0.88;;
10458;SDS011;5277;48.722;8.736;2024-03-23T14:01:51;3.20;;;1.05;;
10458;SDS011;5277;48.722;8.736;2024-03-23T14:04:17;3.10;;;0.95;;
10458;SDS011;5277;48.722;8.736;2024-03-23T14:06:44;3.92;;;1.25;;
10458;SDS011;5277;48.722;8.736;2024-03-23T14:09:12;2.22;;;1.08;;
10458;SDS011;5277;48.722;8.736;2024-03-23T14:11:39;2.72;;;1.17;;
10458;SDS011;5277;48.722;8.736;2024-03-23T14:14:07;3.17;;;1.30;;
10458;SDS011;5277;48.722;8.736;2024-03-23T14:16:33;3.00;;;1.23;;
10458;SDS011;5277;48.722;8.736;2024-03-23T14:18:59;3.42;;;1.10;;
10458;SDS011;5277;48.722;8.736;2024-03-23T14:21:24;2.75;;;1.05;;
10458;SDS011;5277;48.722;8.736;2024-03-23T14:23:50;4.03;;;1.33;;
10458;SDS011;5277;48.722;8.736;2024-03-23T14:26:16;3.33;;;0.90;;
10458;SDS011;5277;48.722;8.736;2024-03-23T14:28:42;2.55;;;1.00;;
10458;SDS011;5277;48.722;8.736;2024-03-23T14:31:07;3.67;;;1.38;;
10458;SDS011;5277;48.722;8.736;2024-03-23T14:33:36;3.53;;;1.10;;
10458;SDS011;5277;48.722;8.736;2024-03-23T14:36:02;3.45;;;1.20;;
10458;SDS011;5277;48.722;8.736;2024-03-23T14:38:28;4.78;;;1.13;;
10458;SDS011;5277;48.722;8.736;2024-03-23T14:40:57;4.85;;;1.20;;
10458;SDS011;5277;48.722;8.736;2024-03-23T14:43:24;6.25;;;1.52;;
10458;SDS011;5277;48.722;8.736;2024-03-23T14:48:41;1.52;;;0.82;;
10458;SDS011;5277;48.722;8.736;2024-03-23T14:51:08;6.38;;;1.10;;
10458;SDS011;5277;48.722;8.736;2024-03-23T14:53:44;2.55;;;1.20;;
10458;SDS011;5277;48.722;8.736;2024-03-23T14:56:10;3.80;;;1.10;;
10458;SDS011;5277;48.722;8.736;2024-03-23T14:58:38;1.90;;;1.08;;
10458;SDS011;5277;48.722;8.736;2024-03-23T15:01:07;5.45;;;1.50;;
10458;SDS011;5277;48.722;8.736;2024-03-23T15:03:36;5.30;;;3.40;;
10458;SDS011;5277;48.722;8.736;2024-03-23T15:06:04;4.13;;;2.28;;
10458;SDS011;5277;48.722;8.736;2024-03-23T15:08:30;5.50;;;1.23;;
10458;SDS011;5277;48.722;8.736;2024-03-23T15:10:59;3.05;;;0.93;;
10458;SDS011;5277;48.722;8.736;2024-03-23T15:13:25;1.63;;;0.90;;
10458;SDS011;5277;48.722;8.736;2024-03-23T15:15:51;2.88;;;1.05;;
10458;SDS011;5277;48.722;8.736;2024-03-23T15:18:17;1.33;;;0.73;;
10458;SDS011;5277;48.722;8.736;2024-03-23T15:20:56;1.92;;;0.80;;
10458;SDS011;5277;48.722;8.736;2024-03-23T15:23:23;1.75;;;0.82;;
10458;SDS011;5277;48.722;8.736;2024-03-23T15:25:58;3.45;;;0.90;;
10458;SDS011;5277;48.722;8.736;2024-03-23T15:28:25;2.25;;;1.02;;
10458;SDS011;5277;48.722;8.736;2024-03-23T15:31:05;3.83;;;0.73;;
10458;SDS011;5277;48.722;8.736;2024-03-23T15:33:31;5.35;;;1.45;;
10458;SDS011;5277;48.722;8.736;2024-03-23T15:36:01;2.70;;;1.08;;
10458;SDS011;5277;48.722;8.736;2024-03-23T15:38:27;2.20;;;0.93;;
10458;SDS011;5277;48.722;8.736;2024-03-23T15:40:54;4.50;;;1.00;;
10458;SDS011;5277;48.722;8.736;2024-03-23T15:43:20;3.47;;;0.93;;
10458;SDS011;5277;48.722;8.736;2024-03-23T15:45:59;2.40;;;0.90;;
10458;SDS011;5277;48.722;8.736;2024-03-23T15:48:29;1.65;;;0.98;;
10458;SDS011;5277;48.722;8.736;2024-03-23T15:51:00;3.13;;;1.00;;
10458;SDS011;5277;48.722;8.736;2024-03-23T15:53:29;1.92;;;0.88;;
10458;SDS011;5277;48.722;8.736;2024-03-23T15:56:02;1.40;;;0.88;;
10458;SDS011;5277;48.722;8.736;2024-03-23T15:58:28;1.65;;;0.70;;
10458;SDS011;5277;48.722;8.736;2024-03-23T16:03:26;0.93;;;0.60;;
10458;SDS011;5277;48.722;8.736;2024-03-23T16:05:53;1.98;;;0.80;;
10458;SDS011;5277;48.722;8.736;2024-03-23T16:08:19;2.90;;;0.98;;